Time;durP1;ratioP1;P1;durP2;ratioP2;P2;SDS_P1;SDS_P2;PMS_P1;PMS_P2;Temp;Humidity;BMP_temperature;BMP_pressure;BME280_temperature;BME280_humidity;BME280_pressure;Samples;Min_cycle;Max_cycle;Signal;HPM_P1;HPM_P2
2022/09/17 00:01:06;;;;;;;;;;;18.90;95.70;;;;;;5076788;28;19917;-9
2022/09/17 00:03:33;;;;;;;;;;;18.90;95.70;;;;;;5076429;28;19940;-11
2022/09/17 00:06:03;;;;;;;;;;;18.90;95.70;;;;;;5058603;28;19913;-10
2022/09/17 00:08:28;;;;;;;;;;;18.90;95.70;;;;;;5075569;28;20305;-11
2022/09/17 00:10:57;;;;;;;;;;;18.90;95.70;;;;;;5059184;28;20001;-8
2022/09/17 00:13:26;;;;;;;;;;;18.90;96.00;;;;;;5074990;28;19962;-9
2022/09/17 00:15:54;;;;;;;;;;;18.90;95.80;;;;;;5058037;28;19909;-10
2022/09/17 00:18:20;;;;;;;;;;;18.90;95.80;;;;;;5075558;28;19916;-8
2022/09/17 00:20:46;;;;;;;;;;;18.90;95.80;;;;;;5058173;28;19909;-11
2022/09/17 00:23:12;;;;;;;;;;;18.90;95.90;;;;;;5075381;28;20363;-10
2022/09/17 00:25:41;;;;;;;;;;;18.90;95.90;;;;;;5075593;28;19908;-10
2022/09/17 00:28:07;;;;;;;;;;;18.90;95.90;;;;;;5058632;28;19913;-10
2022/09/17 00:30:32;;;;;;;;;;;18.80;95.90;;;;;;5075131;28;19908;-9
2022/09/17 00:33:01;;;;;;;;;;;18.80;95.90;;;;;;5056842;28;20325;-10
2022/09/17 00:35:27;;;;;;;;;;;18.80;95.90;;;;;;5076274;28;20273;-10
2022/09/17 00:37:52;;;;;;;;;;;18.80;95.90;;;;;;5071380;28;20204;-10
2022/09/17 00:40:19;;;;;;;;;;;18.80;95.90;;;;;;5072649;28;19908;-12
2022/09/17 00:42:45;;;;;;;;;;;18.80;96.00;;;;;;5075394;28;19919;-10
2022/09/17 00:45:13;;;;;;;;;;;18.80;95.90;;;;;;5074623;28;19995;-11
2022/09/17 00:47:46;;;;;;;;;;;18.80;96.00;;;;;;5074487;28;19927;-9
2022/09/17 00:50:21;;;;;;;;;;;18.80;96.00;;;;;;5077002;28;19920;-10
2022/09/17 00:52:49;;;;;;;;;;;18.80;96.00;;;;;;5060960;28;19909;-10
2022/09/17 00:55:18;;;;;;;;;;;18.80;96.10;;;;;;5078038;28;19991;-8
2022/09/17 00:57:44;;;;;;;;;;;18.80;96.10;;;;;;5078301;28;20003;-10
2022/09/17 01:00:11;;;;;;;;;;;18.80;96.10;;;;;;5077421;28;20269;-9
2022/09/17 01:02:37;;;;;;;;;;;18.70;96.10;;;;;;5078932;28;19909;-9
2022/09/17 01:05:03;;;;;;;;;;;18.70;96.10;;;;;;5078538;28;19974;-11
2022/09/17 01:07:28;;;;;;;;;;;18.70;96.10;;;;;;5062435;28;19920;-9
2022/09/17 01:10:06;;;;;;;;;;;18.70;96.20;;;;;;5061947;28;19962;-10
2022/09/17 01:12:52;;;;;;;;;;;18.70;96.20;;;;;;5078992;28;19909;-8
2022/09/17 01:15:26;;;;;;;;;;;18.70;96.20;;;;;;5060358;28;19909;-10
2022/09/17 01:18:07;;;;;;;;;;;18.70;96.20;;;;;;5061313;28;19927;-9
2022/09/17 01:20:52;;;;;;;;;;;18.70;96.30;;;;;;5078268;28;20270;-10
2022/09/17 01:23:26;;;;;;;;;;;18.70;96.30;;;;;;5062232;28;19908;-10
2022/09/17 01:26:10;;;;;;;;;;;18.70;96.30;;;;;;5060926;28;19978;-10
2022/09/17 01:28:49;;;;;;;;;;;18.70;96.30;;;;;;5061216;28;19912;-10
2022/09/17 01:31:18;;;;;;;;;;;18.70;96.30;;;;;;5061573;28;20007;-9
2022/09/17 01:33:51;;;;;;;;;;;18.70;96.30;;;;;;5078988;28;20182;-9
2022/09/17 01:36:25;;;;;;;;;;;18.70;96.30;;;;;;5078022;28;19920;-10
2022/09/17 01:39:01;;;;;;;;;;;18.70;96.40;;;;;;5061629;28;19912;-9
2022/09/17 01:41:42;;;;;;;;;;;18.70;96.40;;;;;;5060641;28;19980;-8
2022/09/17 01:44:19;;;;;;;;;;;18.70;96.40;;;;;;5061617;28;20050;-10
2022/09/17 01:46:48;;;;;;;;;;;18.70;96.40;;;;;;5059164;28;19912;-10
2022/09/17 01:49:18;;;;;;;;;;;18.70;96.40;;;;;;5076126;28;19916;-10
2022/09/17 01:51:45;;;;;;;;;;;18.60;96.40;;;;;;5058314;28;19935;-8
2022/09/17 01:54:21;;;;;;;;;;;18.60;96.50;;;;;;5076708;28;19961;-10
2022/09/17 01:56:55;;;;;;;;;;;18.60;96.50;;;;;;5077424;28;19909;-10
2022/09/17 01:59:21;;;;;;;;;;;18.60;96.50;;;;;;5078014;28;19919;-10
2022/09/17 02:01:49;;;;;;;;;;;18.60;96.50;;;;;;5077049;28;19908;-8
2022/09/17 02:04:18;;;;;;;;;;;18.60;96.50;;;;;;5079112;28;19917;-10
2022/09/17 02:06:46;;;;;;;;;;;18.60;96.60;;;;;;5078099;28;19991;-11
2022/09/17 02:09:30;;;;;;;;;;;18.60;96.60;;;;;;5079131;28;20173;-10
2022/09/17 02:11:58;;;;;;;;;;;18.60;96.60;;;;;;5078613;28;19916;-9
2022/09/17 02:14:27;;;;;;;;;;;18.60;96.60;;;;;;5060991;28;19912;-10
2022/09/17 02:16:55;;;;;;;;;;;18.60;96.70;;;;;;5078957;28;19920;-9
2022/09/17 02:19:27;;;;;;;;;;;18.60;96.70;;;;;;5061232;28;20310;-9
2022/09/17 02:22:04;;;;;;;;;;;18.60;96.70;;;;;;5060849;28;20205;-10
2022/09/17 02:24:48;;;;;;;;;;;18.60;96.70;;;;;;5078417;28;19930;-10
2022/09/17 02:27:29;;;;;;;;;;;18.60;96.70;;;;;;5061068;28;19913;-10
2022/09/17 02:29:55;;;;;;;;;;;18.60;96.80;;;;;;5060540;28;19926;-9
2022/09/17 02:32:20;;;;;;;;;;;18.50;96.70;;;;;;5078876;28;19919;-10
2022/09/17 02:34:48;;;;;;;;;;;18.50;96.80;;;;;;5059435;28;21150;-10
2022/09/17 02:37:14;;;;;;;;;;;18.50;96.80;;;;;;5077970;28;20278;-10
2022/09/17 02:39:40;;;;;;;;;;;18.50;96.80;;;;;;5060358;28;19958;-9
2022/09/17 02:42:11;;;;;;;;;;;18.50;96.80;;;;;;5059728;28;20185;-10
2022/09/17 02:44:56;;;;;;;;;;;18.50;96.80;;;;;;5059121;28;20029;-10
2022/09/17 02:47:41;;;;;;;;;;;18.50;96.90;;;;;;5058619;28;19917;-9
2022/09/17 02:50:27;;;;;;;;;;;18.50;96.90;;;;;;5059361;28;19909;-9
2022/09/17 02:52:58;;;;;;;;;;;18.50;96.90;;;;;;5077013;28;19909;-9
2022/09/17 02:55:43;;;;;;;;;;;18.50;96.90;;;;;;5059168;28;20285;-9
2022/09/17 02:58:14;;;;;;;;;;;18.50;96.90;;;;;;5077141;28;19972;-11
2022/09/17 03:00:43;;;;;;;;;;;18.50;96.90;;;;;;5059856;28;19974;-9
2022/09/17 03:03:30;;;;;;;;;;;18.50;97.00;;;;;;5077706;28;19913;-9
2022/09/17 03:05:56;;;;;;;;;;;18.50;97.00;;;;;;5077236;28;19924;-11
2022/09/17 03:08:31;;;;;;;;;;;18.50;97.00;;;;;;5077868;28;19920;-9
2022/09/17 03:10:57;;;;;;;;;;;18.50;97.00;;;;;;5077851;28;19948;-10
2022/09/17 03:13:22;;;;;;;;;;;18.40;97.00;;;;;;5058495;28;19944;-8
2022/09/17 03:15:48;;;;;;;;;;;18.40;97.00;;;;;;5076614;28;19916;-10
2022/09/17 03:18:14;;;;;;;;;;;18.50;97.10;;;;;;5058651;28;19920;-9
2022/09/17 03:20:39;;;;;;;;;;;18.40;97.10;;;;;;5076677;28;20285;-10
2022/09/17 03:23:05;;;;;;;;;;;18.40;97.10;;;;;;5076793;28;19947;-10
2022/09/17 03:25:31;;;;;;;;;;;18.40;97.10;;;;;;5057012;28;20003;-9
2022/09/17 03:27:59;;;;;;;;;;;18.40;97.10;;;;;;5074798;28;19952;-9
2022/09/17 03:30:28;;;;;;;;;;;18.40;97.10;;;;;;5057278;28;19908;-10
2022/09/17 03:32:56;;;;;;;;;;;18.40;97.10;;;;;;5058192;28;19943;-8
2022/09/17 03:35:25;;;;;;;;;;;18.40;97.10;;;;;;5058416;28;19915;-8
2022/09/17 03:37:51;;;;;;;;;;;18.40;97.10;;;;;;5059367;28;19912;-8
2022/09/17 03:40:16;;;;;;;;;;;18.40;97.10;;;;;;5059984;28;19909;-8
2022/09/17 03:42:42;;;;;;;;;;;18.40;97.20;;;;;;5058631;28;19939;-9
2022/09/17 03:45:08;;;;;;;;;;;18.40;97.20;;;;;;5059173;28;19963;-9
2022/09/17 03:47:34;;;;;;;;;;;18.40;97.20;;;;;;5075569;28;19927;-9
2022/09/17 03:49:59;;;;;;;;;;;18.40;97.20;;;;;;5057563;28;19908;-9
2022/09/17 03:52:25;;;;;;;;;;;18.40;97.30;;;;;;5075266;28;20270;-7
2022/09/17 03:54:50;;;;;;;;;;;18.40;97.30;;;;;;5057659;28;19920;-10
2022/09/17 03:57:18;;;;;;;;;;;18.40;97.30;;;;;;5057972;28;19924;-11
2022/09/17 03:59:44;;;;;;;;;;;18.40;97.30;;;;;;5075116;28;19921;-9
2022/09/17 04:02:09;;;;;;;;;;;18.30;97.30;;;;;;5058088;28;19908;-9
2022/09/17 04:04:35;;;;;;;;;;;18.30;97.30;;;;;;5075950;28;19921;-10
2022/09/17 04:07:01;;;;;;;;;;;18.30;97.30;;;;;;5056669;28;19919;-10
2022/09/17 04:09:26;;;;;;;;;;;18.30;97.30;;;;;;5073794;28;20304;-10
2022/09/17 04:11:52;;;;;;;;;;;18.30;97.30;;;;;;5056449;28;20185;-10
2022/09/17 04:14:20;;;;;;;;;;;18.30;97.30;;;;;;5057224;28;19969;-9
2022/09/17 04:16:46;;;;;;;;;;;18.30;97.30;;;;;;5074367;28;19912;-8
2022/09/17 04:19:12;;;;;;;;;;;18.30;97.40;;;;;;5057003;28;19923;-10
2022/09/17 04:21:37;;;;;;;;;;;18.30;97.40;;;;;;5074395;28;19916;-9
2022/09/17 04:24:03;;;;;;;;;;;18.30;97.40;;;;;;5056910;28;20274;-8
2022/09/17 04:26:28;;;;;;;;;;;18.30;97.40;;;;;;5075812;28;19920;-10
2022/09/17 04:28:57;;;;;;;;;;;18.30;97.40;;;;;;5075294;28;20300;-10
2022/09/17 04:31:26;;;;;;;;;;;18.30;97.50;;;;;;5075277;28;19936;-12
2022/09/17 04:33:51;;;;;;;;;;;18.30;97.50;;;;;;5075925;28;19974;-9
2022/09/17 04:36:20;;;;;;;;;;;18.30;97.50;;;;;;5056174;28;19943;-8
2022/09/17 04:38:48;;;;;;;;;;;18.30;97.50;;;;;;5074420;28;20003;-9
2022/09/17 04:41:14;;;;;;;;;;;18.30;97.60;;;;;;5074135;28;19919;-10
2022/09/17 04:43:40;;;;;;;;;;;18.30;97.60;;;;;;5057650;28;19908;-9
2022/09/17 04:46:06;;;;;;;;;;;18.20;97.50;;;;;;5056995;28;20312;-10
2022/09/17 04:48:34;;;;;;;;;;;18.20;97.60;;;;;;5057175;28;19912;-9
2022/09/17 04:51:00;;;;;;;;;;;18.20;97.60;;;;;;5057161;28;20268;-8
2022/09/17 04:53:25;;;;;;;;;;;18.20;97.60;;;;;;5058539;28;20297;-11
2022/09/17 04:55:51;;;;;;;;;;;18.20;97.60;;;;;;5057887;28;20300;-10
2022/09/17 04:58:17;;;;;;;;;;;18.20;97.60;;;;;;5056904;28;19909;-10
2022/09/17 05:00:42;;;;;;;;;;;18.20;97.60;;;;;;5055464;28;19914;-10
2022/09/17 05:03:08;;;;;;;;;;;18.20;97.60;;;;;;5073458;28;19908;-10
2022/09/17 05:05:33;;;;;;;;;;;18.20;97.70;;;;;;5073586;28;20062;-9
2022/09/17 05:07:59;;;;;;;;;;;18.20;97.70;;;;;;5072223;28;19969;-9
2022/09/17 05:10:25;;;;;;;;;;;18.20;97.70;;;;;;5071591;28;20003;-10
2022/09/17 05:12:51;;;;;;;;;;;18.20;97.70;;;;;;5054721;28;20053;-9
2022/09/17 05:15:21;;;;;;;;;;;18.20;97.70;;;;;;5054663;28;20175;-8
2022/09/17 05:17:47;;;;;;;;;;;18.20;97.70;;;;;;5072011;28;19955;-10
2022/09/17 05:20:13;;;;;;;;;;;18.20;97.70;;;;;;5072629;28;19959;-9
2022/09/17 05:22:57;;;;;;;;;;;18.20;97.70;;;;;;5053406;28;19936;-8
2022/09/17 05:25:25;;;;;;;;;;;18.20;97.80;;;;;;5073697;28;19916;-9
2022/09/17 05:27:55;;;;;;;;;;;18.20;97.80;;;;;;5054182;28;20266;-10
2022/09/17 05:30:21;;;;;;;;;;;18.20;97.80;;;;;;5072361;28;20108;-10
2022/09/17 05:32:56;;;;;;;;;;;18.20;97.80;;;;;;5055146;28;20022;-8
2022/09/17 05:35:25;;;;;;;;;;;18.20;97.80;;;;;;5072550;28;20015;-8
2022/09/17 05:37:54;;;;;;;;;;;18.20;97.70;;;;;;5058261;28;19921;-9
2022/09/17 05:40:20;;;;;;;;;;;18.20;97.70;;;;;;5059288;28;19999;-8
2022/09/17 05:42:46;;;;;;;;;;;18.30;97.70;;;;;;5058434;28;19999;-9
2022/09/17 05:45:11;;;;;;;;;;;18.30;97.60;;;;;;5059686;28;19913;-10
2022/09/17 05:47:37;;;;;;;;;;;18.40;97.50;;;;;;5057626;28;19917;-10
2022/09/17 05:50:03;;;;;;;;;;;18.40;97.30;;;;;;5076107;28;19909;-10
2022/09/17 05:52:31;;;;;;;;;;;18.50;97.20;;;;;;5075148;28;19908;-8
2022/09/17 05:54:56;;;;;;;;;;;18.50;97.10;;;;;;5076194;28;19955;-10
2022/09/17 05:57:22;;;;;;;;;;;18.60;96.80;;;;;;5074972;28;19947;-9
2022/09/17 05:59:48;;;;;;;;;;;18.80;96.50;;;;;;5074518;28;20270;-10
2022/09/17 06:02:13;;;;;;;;;;;18.90;96.10;;;;;;5075628;28;20174;-9
2022/09/17 06:04:39;;;;;;;;;;;18.90;95.90;;;;;;5056744;28;19916;-11
2022/09/17 06:07:08;;;;;;;;;;;19.30;95.40;;;;;;5073951;28;19923;-10
2022/09/17 06:09:35;;;;;;;;;;;19.40;94.50;;;;;;5075727;28;20046;-10
2022/09/17 06:12:03;;;;;;;;;;;19.30;94.70;;;;;;5057601;28;19970;-9
2022/09/17 06:14:32;;;;;;;;;;;19.10;95.00;;;;;;5056966;28;19943;-9
2022/09/17 06:17:00;;;;;;;;;;;19.00;95.30;;;;;;5073667;28;19917;-9
2022/09/17 06:19:26;;;;;;;;;;;18.90;95.50;;;;;;5074514;28;19945;-8
2022/09/17 06:21:52;;;;;;;;;;;18.90;95.80;;;;;;5074855;28;19920;-9
2022/09/17 06:24:17;;;;;;;;;;;18.90;95.50;;;;;;5056525;28;19916;-11
2022/09/17 06:26:43;;;;;;;;;;;19.00;95.40;;;;;;5074186;28;19955;-9
2022/09/17 06:29:09;;;;;;;;;;;19.00;95.30;;;;;;5073860;28;19943;-10
2022/09/17 06:31:34;;;;;;;;;;;19.00;95.30;;;;;;5073399;28;19909;-9
2022/09/17 06:34:00;;;;;;;;;;;19.00;95.30;;;;;;5073338;28;19909;-9
2022/09/17 06:36:25;;;;;;;;;;;18.90;95.40;;;;;;5073181;28;19909;-8
2022/09/17 06:38:54;;;;;;;;;;;18.90;95.50;;;;;;5054880;28;20083;-9
2022/09/17 06:41:19;;;;;;;;;;;18.90;95.50;;;;;;5055659;28;19913;-11
2022/09/17 06:43:45;;;;;;;;;;;18.80;95.60;;;;;;5074531;28;19919;-12
2022/09/17 06:46:14;;;;;;;;;;;18.80;95.70;;;;;;5073062;28;20247;-9
2022/09/17 06:48:42;;;;;;;;;;;18.70;95.80;;;;;;5073451;28;19912;-9
2022/09/17 06:51:09;;;;;;;;;;;18.70;95.90;;;;;;5073224;28;19923;-10
2022/09/17 06:53:36;;;;;;;;;;;18.60;96.00;;;;;;5072753;28;19919;-10
2022/09/17 06:56:03;;;;;;;;;;;18.60;96.10;;;;;;5055311;28;20023;-9
2022/09/17 06:58:29;;;;;;;;;;;18.60;96.40;;;;;;5073008;28;20029;-10
2022/09/17 07:01:00;;;;;;;;;;;18.60;96.80;;;;;;5072508;28;20309;-10
2022/09/17 07:03:29;;;;;;;;;;;18.60;97.00;;;;;;5070870;28;19931;-10
2022/09/17 07:05:56;;;;;;;;;;;18.70;97.30;;;;;;5071456;28;19909;-8
2022/09/17 07:08:22;;;;;;;;;;;18.70;97.30;;;;;;5053679;28;19974;-8
2022/09/17 07:10:47;;;;;;;;;;;18.70;97.30;;;;;;5053545;28;19959;-9
2022/09/17 07:13:13;;;;;;;;;;;18.70;97.50;;;;;;5071894;28;19908;-9
2022/09/17 07:15:39;;;;;;;;;;;18.70;97.60;;;;;;5072638;28;19908;-10
2022/09/17 07:18:08;;;;;;;;;;;18.70;97.80;;;;;;5053616;28;20282;-10
2022/09/17 07:20:37;;;;;;;;;;;18.80;98.10;;;;;;5071503;28;19964;-10
2022/09/17 07:23:03;;;;;;;;;;;18.80;98.00;;;;;;5072920;28;19952;-10
2022/09/17 07:25:29;;;;;;;;;;;18.80;98.20;;;;;;5071116;28;20300;-10
2022/09/17 07:27:55;;;;;;;;;;;19.20;97.70;;;;;;5051076;28;20311;-10
2022/09/17 07:30:21;;;;;;;;;;;20.60;95.40;;;;;;5069558;28;19915;-9
2022/09/17 07:32:46;;;;;;;;;;;22.10;90.20;;;;;;5070458;28;19912;-10
2022/09/17 07:35:12;;;;;;;;;;;22.90;82.50;;;;;;5071177;28;19944;-10
2022/09/17 07:37:37;;;;;;;;;;;23.80;75.10;;;;;;5069477;28;20192;-11
2022/09/17 07:40:06;;;;;;;;;;;24.70;68.30;;;;;;5070633;28;19908;-9
2022/09/17 07:42:34;;;;;;;;;;;25.20;63.70;;;;;;5071588;28;19909;-10
2022/09/17 07:45:03;;;;;;;;;;;25.80;61.10;;;;;;5053794;28;20029;-9
2022/09/17 07:47:28;;;;;;;;;;;26.30;59.20;;;;;;5071022;28;19913;-10
2022/09/17 07:49:54;;;;;;;;;;;26.00;58.50;;;;;;5071865;28;20539;-10
2022/09/17 07:52:20;;;;;;;;;;;26.00;58.40;;;;;;5070977;28;20311;-10
2022/09/17 07:54:45;;;;;;;;;;;25.70;58.60;;;;;;5072174;28;19904;-10
2022/09/17 07:57:11;;;;;;;;;;;26.30;58.30;;;;;;5071578;28;19915;-10
2022/09/17 07:59:37;;;;;;;;;;;27.00;56.60;;;;;;5053820;28;20453;-9
2022/09/17 08:02:02;;;;;;;;;;;27.40;55.20;;;;;;5072229;28;20270;-10
2022/09/17 08:04:28;;;;;;;;;;;27.90;53.70;;;;;;5071214;28;19964;-10
2022/09/17 08:06:53;;;;;;;;;;;28.00;52.80;;;;;;5070661;28;19916;-10
2022/09/17 08:09:19;;;;;;;;;;;27.70;52.20;;;;;;5069672;28;19969;-10
2022/09/17 08:11:47;;;;;;;;;;;26.50;53.10;;;;;;5071615;28;19908;-10
2022/09/17 08:14:14;;;;;;;;;;;25.20;54.40;;;;;;5071564;28;19913;-11
2022/09/17 08:16:40;;;;;;;;;;;24.40;56.00;;;;;;5051861;28;19919;-10
2022/09/17 08:19:06;;;;;;;;;;;23.80;57.40;;;;;;5069235;28;19909;-10
2022/09/17 08:21:31;;;;;;;;;;;23.30;58.60;;;;;;5071412;28;19931;-12
2022/09/17 08:23:59;;;;;;;;;;;23.10;59.60;;;;;;5070683;28;20169;-11
2022/09/17 08:26:26;;;;;;;;;;;23.00;60.40;;;;;;5050303;28;20228;-11
2022/09/17 08:28:55;;;;;;;;;;;24.20;58.70;;;;;;5051044;28;20196;-11
2022/09/17 08:31:21;;;;;;;;;;;25.00;56.90;;;;;;5068737;28;19962;-10
2022/09/17 08:33:47;;;;;;;;;;;25.10;55.50;;;;;;5070242;28;19908;-11
2022/09/17 08:36:14;;;;;;;;;;;24.30;56.10;;;;;;5070250;28;20201;-12
2022/09/17 08:38:39;;;;;;;;;;;25.00;56.80;;;;;;5051330;28;20324;-10
2022/09/17 08:41:05;;;;;;;;;;;25.60;55.70;;;;;;5069114;28;20349;-10
2022/09/17 08:43:41;;;;;;;;;;;26.80;54.70;;;;;;5068868;28;20218;-9
2022/09/17 08:46:08;;;;;;;;;;;27.70;53.00;;;;;;5070057;28;19909;-10
2022/09/17 08:48:38;;;;;;;;;;;28.30;51.90;;;;;;5052859;28;20293;-10
2022/09/17 08:51:26;;;;;;;;;;;28.40;51.20;;;;;;5068267;28;19919;-11
2022/09/17 08:53:57;;;;;;;;;;;27.50;51.30;;;;;;5022062;28;19912;-9
2022/09/17 08:56:25;;;;;;;;;;;28.00;51.40;;;;;;5068376;28;20032;-9
2022/09/17 08:58:56;;;;;;;;;;;27.90;51.30;;;;;;5067587;28;19935;-11
2022/09/17 09:01:21;;;;;;;;;;;28.50;51.00;;;;;;5067837;28;20182;-10
2022/09/17 09:03:47;;;;;;;;;;;28.00;50.70;;;;;;5049135;28;19919;-11
2022/09/17 09:06:14;;;;;;;;;;;28.50;50.70;;;;;;5067916;28;19919;-12
2022/09/17 09:08:50;;;;;;;;;;;28.30;49.90;;;;;;5066506;28;20263;-12
2022/09/17 09:11:25;;;;;;;;;;;26.80;50.90;;;;;;5050789;28;19908;-12
2022/09/17 09:13:56;;;;;;;;;;;25.60;52.30;;;;;;5070894;28;20418;-10
2022/09/17 09:16:24;;;;;;;;;;;27.00;52.50;;;;;;5071350;28;19915;-10
2022/09/17 09:18:51;;;;;;;;;;;27.60;51.00;;;;;;5055083;28;19927;-10
2022/09/17 09:21:27;;;;;;;;;;;26.30;51.50;;;;;;5072360;28;19917;-11
2022/09/17 09:23:57;;;;;;;;;;;25.30;52.60;;;;;;5072801;28;20189;-11
2022/09/17 09:26:46;;;;;;;;;;;24.60;53.60;;;;;;5056202;28;19916;-11
2022/09/17 09:29:18;;;;;;;;;;;24.90;53.70;;;;;;5073212;28;19927;-12
2022/09/17 09:32:02;;;;;;;;;;;25.50;54.20;;;;;;5073307;28;20062;-10
2022/09/17 09:34:31;;;;;;;;;;;27.00;52.80;;;;;;5073625;28;20105;-11
2022/09/17 09:37:18;;;;;;;;;;;27.50;51.00;;;;;;5072761;28;20314;-11
2022/09/17 09:39:45;;;;;;;;;;;27.10;51.50;;;;;;5071133;28;19952;-10
2022/09/17 09:42:48;;;;;;;;;;;25.80;52.00;;;;;;5051499;28;19917;-11
2022/09/17 09:45:16;;;;;;;;;;;24.90;53.10;;;;;;4952153;28;20055;-11
2022/09/17 09:47:44;;;;;;;;;;;24.30;54.60;;;;;;5049656;28;19927;-10
2022/09/17 09:50:10;;;;;;;;;;;23.80;55.40;;;;;;5069509;28;19916;-10
2022/09/17 09:52:50;;;;;;;;;;;23.40;56.50;;;;;;5072028;28;19935;-10
2022/09/17 09:55:35;;;;;;;;;;;23.00;57.80;;;;;;5072046;28;19909;-11
2022/09/17 09:58:03;;;;;;;;;;;22.70;59.10;;;;;;5072042;28;19909;-9
2022/09/17 10:00:34;;;;;;;;;;;22.50;60.30;;;;;;5072066;28;20186;-11
2022/09/17 10:03:18;;;;;;;;;;;22.20;61.80;;;;;;5069671;28;19916;-10
2022/09/17 10:05:59;;;;;;;;;;;22.30;62.40;;;;;;5072063;28;19981;-10
2022/09/17 10:08:30;;;;;;;;;;;22.40;61.90;;;;;;5054160;28;19923;-11
2022/09/17 10:10:57;;;;;;;;;;;22.40;61.90;;;;;;5072348;28;19935;-11
2022/09/17 10:13:22;;;;;;;;;;;22.50;61.70;;;;;;5072079;28;19947;-10
2022/09/17 10:15:48;;;;;;;;;;;22.40;62.00;;;;;;5072122;28;20458;-9
2022/09/17 10:18:16;;;;;;;;;;;22.20;62.80;;;;;;5051461;28;19989;-10
2022/09/17 10:20:48;;;;;;;;;;;22.20;63.20;;;;;;5052860;28;20262;-10
2022/09/17 10:23:14;;;;;;;;;;;22.10;63.80;;;;;;5070009;28;20128;-9
2022/09/17 10:25:42;;;;;;;;;;;22.00;64.90;;;;;;5054608;28;20274;-11
2022/09/17 10:28:27;;;;;;;;;;;21.80;65.60;;;;;;5051212;28;20017;-11
2022/09/17 10:30:56;;;;;;;;;;;21.80;66.10;;;;;;5052345;28;19912;-11
2022/09/17 10:33:23;;;;;;;;;;;21.80;66.50;;;;;;5068153;28;20354;-11
2022/09/17 10:36:09;;;;;;;;;;;21.80;66.70;;;;;;5051168;28;20152;-10
2022/09/17 10:38:37;;;;;;;;;;;21.80;66.70;;;;;;5053183;28;19986;-9
2022/09/17 10:41:12;;;;;;;;;;;21.80;67.00;;;;;;5051278;28;19948;-10
2022/09/17 10:43:38;;;;;;;;;;;21.80;67.00;;;;;;5071110;28;19943;-10
2022/09/17 10:46:06;;;;;;;;;;;21.80;67.30;;;;;;5070410;28;19909;-11
2022/09/17 10:48:37;;;;;;;;;;;21.80;66.60;;;;;;5070006;28;19913;-10
2022/09/17 10:51:05;;;;;;;;;;;21.80;65.80;;;;;;5069169;28;20286;-10
2022/09/17 10:53:32;;;;;;;;;;;21.80;65.90;;;;;;5068006;28;19924;-9
2022/09/17 10:56:01;;;;;;;;;;;21.90;66.30;;;;;;5070049;28;20360;-11
2022/09/17 10:58:41;;;;;;;;;;;21.90;66.10;;;;;;5069993;28;20052;-9
2022/09/17 11:01:22;;;;;;;;;;;21.80;66.30;;;;;;5069887;28;19973;-10
2022/09/17 11:03:53;;;;;;;;;;;21.70;66.60;;;;;;5069816;28;20296;-10
2022/09/17 11:06:22;;;;;;;;;;;21.60;67.50;;;;;;5068675;28;19923;-11
2022/09/17 11:08:54;;;;;;;;;;;21.50;68.20;;;;;;5070995;28;19916;-9
2022/09/17 11:11:19;;;;;;;;;;;21.50;68.80;;;;;;5050542;28;19916;-8
2022/09/17 11:13:45;;;;;;;;;;;21.40;69.30;;;;;;5066401;28;20197;-9
2022/09/17 11:16:21;;;;;;;;;;;21.40;70.20;;;;;;5067343;28;19948;-10
2022/09/17 11:18:54;;;;;;;;;;;21.30;70.80;;;;;;5067726;28;20179;-10
2022/09/17 11:21:35;;;;;;;;;;;21.30;71.00;;;;;;5067586;28;19908;-11
2022/09/17 11:24:01;;;;;;;;;;;21.30;71.10;;;;;;5067831;28;19908;-11
2022/09/17 11:26:26;;;;;;;;;;;21.20;71.40;;;;;;5069094;28;19920;-11
2022/09/17 11:29:07;;;;;;;;;;;21.10;71.80;;;;;;5070393;28;19916;-9
2022/09/17 11:31:37;;;;;;;;;;;21.10;72.50;;;;;;5052342;28;20003;-10
2022/09/17 11:34:14;;;;;;;;;;;21.00;73.30;;;;;;5069079;28;20324;-10
2022/09/17 11:36:53;;;;;;;;;;;20.90;74.30;;;;;;5069917;28;19948;-10
2022/09/17 11:39:27;;;;;;;;;;;20.80;75.00;;;;;;5069772;28;19905;-9
2022/09/17 11:41:57;;;;;;;;;;;20.70;75.90;;;;;;5071995;28;20373;-10
2022/09/17 11:44:25;;;;;;;;;;;20.70;76.30;;;;;;5071434;28;20015;-10
2022/09/17 11:47:17;;;;;;;;;;;20.70;76.30;;;;;;5069401;28;19908;-10
2022/09/17 11:49:45;;;;;;;;;;;20.80;75.90;;;;;;5005285;28;19977;-10
2022/09/17 11:52:17;;;;;;;;;;;20.90;75.60;;;;;;5066833;28;20457;-9
2022/09/17 11:54:48;;;;;;;;;;;20.90;75.40;;;;;;5068201;28;19909;-10
2022/09/17 11:57:39;;;;;;;;;;;20.90;75.30;;;;;;5070542;28;19909;-11
2022/09/17 12:00:08;;;;;;;;;;;20.90;75.70;;;;;;5063369;28;20015;-10
2022/09/17 12:02:43;;;;;;;;;;;20.80;76.40;;;;;;5068920;28;19909;-10
2022/09/17 12:05:27;;;;;;;;;;;20.70;77.00;;;;;;5068155;28;20223;-11
2022/09/17 12:08:02;;;;;;;;;;;20.70;77.50;;;;;;5067227;28;19982;-10
2022/09/17 12:10:31;;;;;;;;;;;20.70;77.90;;;;;;5066427;28;20019;-10
2022/09/17 12:13:03;;;;;;;;;;;20.70;78.20;;;;;;5047728;28;20139;-11
2022/09/17 12:15:33;;;;;;;;;;;20.70;78.40;;;;;;5065464;28;19982;-10
2022/09/17 12:18:02;;;;;;;;;;;20.60;78.30;;;;;;5047911;28;20207;-11
2022/09/17 12:20:30;;;;;;;;;;;20.60;78.60;;;;;;5048878;28;19908;-11
2022/09/17 12:22:57;;;;;;;;;;;20.60;78.90;;;;;;5048956;28;20248;-12
2022/09/17 12:25:25;;;;;;;;;;;20.60;79.20;;;;;;5066255;28;19908;-10
2022/09/17 12:27:58;;;;;;;;;;;20.60;79.50;;;;;;5067371;28;19913;-11
2022/09/17 12:30:37;;;;;;;;;;;20.60;79.70;;;;;;5064946;28;20119;-10
2022/09/17 12:33:22;;;;;;;;;;;20.70;79.50;;;;;;5067087;28;19935;-10
2022/09/17 12:36:00;;;;;;;;;;;20.70;79.40;;;;;;5068576;28;20009;-11
2022/09/17 12:38:26;;;;;;;;;;;20.70;79.20;;;;;;5067606;28;20007;-8
2022/09/17 12:41:10;;;;;;;;;;;20.80;78.90;;;;;;5067296;28;20014;-11
2022/09/17 12:43:38;;;;;;;;;;;20.80;78.80;;;;;;5068573;28;19947;-10
2022/09/17 12:46:15;;;;;;;;;;;20.80;78.50;;;;;;5068802;28;19951;-9
2022/09/17 12:48:59;;;;;;;;;;;20.90;78.50;;;;;;5068530;28;19999;-10
2022/09/17 12:51:57;;;;;;;;;;;20.80;78.70;;;;;;5051621;28;19908;-10
2022/09/17 12:54:34;;;;;;;;;;;20.70;79.20;;;;;;5012460;28;19924;-11
2022/09/17 12:57:06;;;;;;;;;;;20.70;79.80;;;;;;5051673;28;19970;-9
2022/09/17 12:59:33;;;;;;;;;;;20.70;80.30;;;;;;5051629;28;19919;-11
2022/09/17 13:02:02;;;;;;;;;;;20.60;80.60;;;;;;5066966;28;19909;-10
2022/09/17 13:04:39;;;;;;;;;;;20.60;80.60;;;;;;5070136;28;19919;-9
2022/09/17 13:07:26;;;;;;;;;;;20.60;81.00;;;;;;5067114;28;19956;-10
2022/09/17 13:10:07;;;;;;;;;;;20.60;81.10;;;;;;5068173;28;19994;-11
2022/09/17 13:12:35;;;;;;;;;;;20.60;81.30;;;;;;5066798;28;19913;-10
2022/09/17 13:15:27;;;;;;;;;;;20.50;81.50;;;;;;5066632;28;19912;-11
2022/09/17 13:17:56;;;;;;;;;;;20.50;81.90;;;;;;5065957;28;19920;-9
2022/09/17 13:20:43;;;;;;;;;;;20.50;82.10;;;;;;5047054;28;19909;-11
2022/09/17 13:23:09;;;;;;;;;;;20.50;82.30;;;;;;5031430;28;20065;-10
2022/09/17 13:25:47;;;;;;;;;;;20.50;82.30;;;;;;5065094;28;20269;-9
2022/09/17 13:28:13;;;;;;;;;;;20.50;82.20;;;;;;5065994;28;19942;-10
2022/09/17 13:30:57;;;;;;;;;;;20.50;82.40;;;;;;5047959;28;19909;-9
2022/09/17 13:33:55;;;;;;;;;;;20.50;82.50;;;;;;5048874;28;19908;-10
2022/09/17 13:36:39;;;;;;;;;;;20.50;82.20;;;;;;4963910;28;20023;-8
2022/09/17 13:39:06;;;;;;;;;;;20.60;81.90;;;;;;5068045;28;19938;-10
2022/09/17 13:41:35;;;;;;;;;;;20.60;82.20;;;;;;5068932;28;19919;-9
2022/09/17 13:44:03;;;;;;;;;;;20.60;82.20;;;;;;5051405;28;19909;-11
2022/09/17 13:46:32;;;;;;;;;;;20.60;82.10;;;;;;5068405;28;19939;-10
2022/09/17 13:49:02;;;;;;;;;;;20.60;82.20;;;;;;5050445;28;20253;-10
2022/09/17 13:51:40;;;;;;;;;;;20.60;82.40;;;;;;5067342;28;19919;-9
2022/09/17 13:54:09;;;;;;;;;;;20.50;83.00;;;;;;5067355;28;19923;-10
2022/09/17 13:56:35;;;;;;;;;;;20.40;83.90;;;;;;5066278;28;20183;-10
2022/09/17 13:59:30;;;;;;;;;;;20.30;84.90;;;;;;5053412;28;19938;-11
2022/09/17 14:01:58;;;;;;;;;;;20.30;85.20;;;;;;5045523;28;20037;-8
2022/09/17 14:04:41;;;;;;;;;;;20.30;85.50;;;;;;5050644;28;20265;-11
2022/09/17 14:07:22;;;;;;;;;;;20.30;85.70;;;;;;5070203;28;19923;-8
2022/09/17 14:09:48;;;;;;;;;;;20.20;87.00;;;;;;5054226;28;19908;-10
2022/09/17 14:12:32;;;;;;;;;;;20.20;86.80;;;;;;5053283;28;20197;-10
2022/09/17 14:14:58;;;;;;;;;;;20.10;87.10;;;;;;5069755;28;20284;-11
2022/09/17 14:17:42;;;;;;;;;;;20.10;87.50;;;;;;5070098;28;19920;-10
2022/09/17 14:20:08;;;;;;;;;;;20.10;87.70;;;;;;5067119;28;19909;-11
2022/09/17 14:22:34;;;;;;;;;;;20.10;87.60;;;;;;5069003;28;19909;-10
2022/09/17 14:25:00;;;;;;;;;;;20.20;87.50;;;;;;5052115;28;19923;-11
2022/09/17 14:27:44;;;;;;;;;;;20.20;87.70;;;;;;5070036;28;20210;-9
2022/09/17 14:30:32;;;;;;;;;;;20.20;87.80;;;;;;5069828;28;19955;-10
2022/09/17 14:33:10;;;;;;;;;;;20.20;87.70;;;;;;5069529;28;19909;-11
2022/09/17 14:35:38;;;;;;;;;;;20.20;87.90;;;;;;5052175;28;20159;-9
2022/09/17 14:38:15;;;;;;;;;;;20.20;87.70;;;;;;5071138;28;20270;-10
2022/09/17 14:40:45;;;;;;;;;;;20.20;87.70;;;;;;5051392;28;20160;-10